Time;durP1;ratioP1;P1;durP2;ratioP2;P2;SDS_P1;SDS_P2;PMS_P1;PMS_P2;Temp;Humidity;BMP_temperature;BMP_pressure;BME280_temperature;BME280_humidity;BME280_pressure;Samples;Min_cycle;Max_cycle;Signal;HPM_P1;HPM_P2
2021/11/06 00:01:23;;;;;;;27.38;16.63;;;;;;;8.85;75.53;101481.75;5076024;28;20059;-82
2021/11/06 00:03:54;;;;;;;24.85;16.25;;;;;;;8.83;75.53;101476.47;5076375;28;20056;-83
2021/11/06 00:06:21;;;;;;;23.40;16.00;;;;;;;8.81;75.49;101477.88;5076237;28;20394;-83
2021/11/06 00:08:50;;;;;;;25.58;17.25;;;;;;;8.67;76.16;101477.56;5075527;28;20056;-83
2021/11/06 00:11:22;;;;;;;27.75;17.25;;;;;;;8.69;75.48;101478.13;5075003;28;20048;-83
2021/11/06 00:13:50;;;;;;;24.65;16.17;;;;;;;8.62;76.03;101472.84;5075325;28;20048;-83
2021/11/06 00:16:20;;;;;;;27.13;16.35;;;;;;;8.57;75.73;101472.00;5075629;28;20071;-82
2021/11/06 00:18:47;;;;;;;25.25;16.80;;;;;;;8.50;76.56;101472.28;5074845;28;20057;-84
2021/11/06 00:21:15;;;;;;;30.70;17.10;;;;;;;8.39;76.18;101474.19;5074325;28;20159;-84
2021/11/06 00:23:42;;;;;;;26.83;15.10;;;;;;;8.52;76.47;101476.47;5079313;28;20055;-83
2021/11/06 00:26:11;;;;;;;23.88;16.05;;;;;;;8.53;75.90;101475.34;5079768;28;20064;-83
2021/11/06 00:28:39;;;;;;;23.17;15.73;;;;;;;8.52;76.19;101479.25;5079495;28;20057;-83
2021/11/06 00:31:06;;;;;;;27.17;16.65;;;;;;;8.41;76.06;101485.88;5078894;28;20433;-84
2021/11/06 00:33:34;;;;;;;24.58;16.10;;;;;;;8.46;75.87;101496.16;5078967;28;20055;-83
2021/11/06 00:36:01;;;;;;;26.33;17.02;;;;;;;8.38;76.70;101491.09;5078492;28;20068;-83
2021/11/06 00:38:30;;;;;;;23.55;16.10;;;;;;;8.47;75.56;101476.44;5078552;28;20074;-84
2021/11/06 00:40:57;;;;;;;28.87;17.43;;;;;;;8.47;75.48;101479.22;5078710;28;20052;-84
2021/11/06 00:43:26;;;;;;;24.98;15.95;;;;;;;8.42;75.80;101490.34;5078432;28;20063;-84
2021/11/06 00:45:54;;;;;;;27.10;16.10;;;;;;;8.37;76.65;101486.69;5058706;28;20059;-84
2021/11/06 00:48:21;;;;;;;25.88;16.23;;;;;;;8.10;77.46;101488.53;5058132;28;20056;-84
2021/11/06 00:50:49;;;;;;;26.10;15.75;;;;;;;8.23;76.77;101487.22;5058243;28;20060;-84
2021/11/06 00:53:16;;;;;;;20.08;13.82;;;;;;;8.06;78.07;101487.44;5060209;28;20053;-84
2021/11/06 00:55:44;;;;;;;21.02;12.70;;;;;;;8.14;77.59;101484.13;5078835;28;20144;-84
2021/11/06 00:58:14;;;;;;;20.33;13.13;;;;;;;8.22;76.80;101479.16;5078251;28;20059;-83
2021/11/06 01:00:46;;;;;;;21.52;13.70;;;;;;;8.29;76.06;101480.56;5077899;28;20053;-84
2021/11/06 01:03:13;;;;;;;19.92;11.95;;;;;;;8.17;77.29;101481.91;5081718;28;20048;-83
2021/11/06 01:05:40;;;;;;;20.65;12.48;;;;;;;8.17;77.25;101487.44;5078378;28;20056;-83
2021/11/06 01:08:11;;;;;;;18.17;11.48;;;;;;;8.21;77.12;101489.44;5071799;28;20063;-82
2021/11/06 01:10:39;;;;;;;23.05;12.48;;;;;;;8.10;77.35;101490.50;5063928;28;20057;-83
2021/11/06 01:13:06;;;;;;;20.58;12.50;;;;;;;8.14;77.15;101494.38;5071485;28;20052;-82
2021/11/06 01:15:33;;;;;;;21.13;12.48;;;;;;;8.20;76.61;101493.28;5069714;28;20076;-83
2021/11/06 01:18:02;;;;;;;21.80;13.07;;;;;;;8.10;76.85;101480.22;5070440;28;20049;-83
2021/11/06 01:20:30;;;;;;;18.00;11.43;;;;;;;8.16;76.44;101488.56;5056516;28;20498;-82
2021/11/06 01:22:58;;;;;;;19.08;10.43;;;;;;;8.14;76.59;101488.84;5077258;28;21007;-82
2021/11/06 01:25:25;;;;;;;16.45;11.13;;;;;;;8.10;76.78;101480.22;5073041;28;20477;-82
2021/11/06 01:27:53;;;;;;;15.82;10.70;;;;;;;8.06;76.99;101493.00;5058832;28;20056;-82
2021/11/06 01:30:23;;;;;;;18.83;10.93;;;;;;;8.14;76.58;101486.88;5057180;28;20053;-82
2021/11/06 01:32:51;;;;;;;18.05;11.02;;;;;;;8.15;76.90;101487.75;5077625;28;20053;-82
2021/11/06 01:35:20;;;;;;;18.27;10.98;;;;;;;7.98;76.92;101485.19;5068438;28;20069;-82
2021/11/06 01:37:48;;;;;;;18.30;11.15;;;;;;;8.14;76.60;101489.66;5069193;28;20060;-82
2021/11/06 01:40:17;;;;;;;18.10;10.98;;;;;;;8.07;76.51;101489.09;5057445;28;20066;-82
2021/11/06 01:42:44;;;;;;;25.73;13.83;;;;;;;8.16;76.45;101505.22;5058882;28;20056;-82
2021/11/06 01:45:15;;;;;;;21.02;11.90;;;;;;;8.18;75.48;101501.06;5073291;28;20052;-82
2021/11/06 01:47:42;;;;;;;19.67;12.68;;;;;;;8.22;75.20;101501.34;5075805;28;20490;-82
2021/11/06 01:50:11;;;;;;;20.13;13.77;;;;;;;8.19;75.84;101501.88;5072981;28;20078;-82
2021/11/06 01:52:40;;;;;;;20.63;12.75;;;;;;;8.20;74.91;101503.56;5076749;28;20067;-82
2021/11/06 01:55:09;;;;;;;19.67;13.68;;;;;;;8.15;75.13;101501.63;5076853;28;20057;-82
2021/11/06 01:57:36;;;;;;;22.70;14.30;;;;;;;8.18;74.37;101501.06;5068260;28;20060;-83
2021/11/06 02:00:06;;;;;;;24.05;14.80;;;;;;;8.13;74.73;101503.84;5072118;28;20055;-82
2021/11/06 02:02:33;;;;;;;;;;;;;;;8.04;75.46;101506.31;5071832;28;20059;-82
2021/11/06 02:05:01;;;;;;;19.75;13.20;;;;;;;8.02;75.37;101508.53;5067794;28;19920;-82
2021/11/06 02:07:28;;;;;;;24.85;14.48;;;;;;;8.08;75.51;101501.88;5059825;28;20067;-82
2021/11/06 02:09:57;;;;;;;23.85;14.18;;;;;;;8.11;75.27;101503.28;5074597;28;20386;-82
2021/11/06 02:12:27;;;;;;;22.75;15.43;;;;;;;8.06;74.97;101508.78;5073255;28;20063;-82
2021/11/06 02:14:55;;;;;;;19.80;13.85;;;;;;;8.06;74.38;101503.22;5075378;28;20052;-82
2021/11/06 02:17:22;;;;;;;23.55;14.15;;;;;;;8.05;74.01;101502.41;5067586;28;20052;-83
2021/11/06 02:19:49;;;;;;;22.73;14.52;;;;;;;8.00;74.55;101496.84;5070148;28;20067;-83
2021/11/06 02:22:18;;;;;;;24.17;14.90;;;;;;;7.94;74.82;101497.94;5076713;28;20063;-82
2021/11/06 02:24:46;;;;;;;30.45;18.02;;;;;;;7.98;74.34;101490.75;5076601;28;20387;-82
2021/11/06 02:27:13;;;;;;;30.75;17.52;;;;;;;7.98;74.44;101492.66;5070964;28;20053;-83
2021/11/06 02:29:41;;;;;;;35.05;19.38;;;;;;;7.94;75.10;101486.84;5070533;28;20056;-82
2021/11/06 02:32:09;;;;;;;28.08;17.73;;;;;;;7.91;75.33;101484.59;5073549;28;20059;-82
2021/11/06 02:34:37;;;;;;;31.73;17.83;;;;;;;7.88;75.03;101485.16;5059491;28;20072;-82
2021/11/06 02:37:05;;;;;;;28.25;18.02;;;;;;;7.79;76.15;101486.75;5056058;28;20491;-82
2021/11/06 02:39:33;;;;;;;30.90;17.27;;;;;;;7.84;75.68;101484.03;5056244;28;20064;-82
2021/11/06 02:42:06;;;;;;;29.20;18.92;;;;;;;7.82;76.09;101477.91;5069863;28;20520;-82
2021/11/06 02:44:34;;;;;;;26.10;17.25;;;;;;;7.71;76.15;101486.19;5055761;28;20057;-82
2021/11/06 02:47:02;;;;;;;33.40;19.00;;;;;;;7.68;76.92;101486.72;5059293;28;20725;-82
2021/11/06 02:49:29;;;;;;;33.25;19.02;;;;;;;7.59;77.01;101481.97;5076184;28;20494;-82
2021/11/06 02:51:56;;;;;;;34.90;19.58;;;;;;;7.67;77.00;101492.56;5075380;28;20052;-82
2021/11/06 02:54:24;;;;;;;32.83;19.52;;;;;;;7.60;77.36;101490.03;5063335;28;20055;-82
2021/11/06 02:56:56;;;;;;;32.95;17.90;;;;;;;7.63;77.49;101486.69;5056013;28;20057;-82
2021/11/06 02:59:24;;;;;;;31.95;17.50;;;;;;;7.62;77.71;101493.38;5055873;28;20406;-82
2021/11/06 03:01:51;;;;;;;31.20;17.45;;;;;;;7.63;77.58;101486.69;5060022;28;20048;-83
2021/11/06 03:04:18;;;;;;;31.48;17.40;;;;;;;7.58;77.79;101485.84;5061753;28;20494;-82
2021/11/06 03:06:52;;;;;;;30.85;17.42;;;;;;;7.64;77.39;101491.16;5056558;28;20494;-82
2021/11/06 03:09:20;;;;;;;30.67;16.75;;;;;;;7.62;77.54;101486.97;5056423;28;20061;-81
2021/11/06 03:11:48;;;;;;;25.92;14.80;;;;;;;7.47;77.64;101490.50;5070429;28;20505;-82
2021/11/06 03:14:17;;;;;;;32.13;17.33;;;;;;;7.54;77.91;101493.88;5075843;28;20057;-82
2021/11/06 03:16:44;;;;;;;26.80;15.68;;;;;;;7.53;77.78;101483.88;5071745;28;20079;-82
2021/11/06 03:19:12;;;;;;;28.88;15.18;;;;;;;7.54;78.25;101485.56;5076096;28;20053;-82
2021/11/06 03:21:39;;;;;;;28.70;14.65;;;;;;;7.51;77.64;101484.13;5076986;28;20079;-82
2021/11/06 03:24:07;;;;;;;31.10;15.57;;;;;;;7.53;77.53;101495.78;5076663;28;20410;-82
2021/11/06 03:26:35;;;;;;;26.48;13.77;;;;;;;7.54;78.14;101485.56;5075767;28;20048;-82
2021/11/06 03:29:02;;;;;;;25.88;14.02;;;;;;;7.52;77.78;101482.22;5071840;28;20064;-82
2021/11/06 03:31:31;;;;;;;25.75;14.63;;;;;;;7.51;77.90;101488.84;5056723;28;20525;-82
2021/11/06 03:33:58;;;;;;;24.58;13.23;;;;;;;7.59;77.71;101493.88;5064520;28;20505;-82
2021/11/06 03:36:25;;;;;;;23.92;11.95;;;;;;;7.61;77.01;101485.31;5073825;28;20418;-82
2021/11/06 03:38:53;;;;;;;24.92;12.95;;;;;;;7.64;76.94;101482.84;5075834;28;20055;-82
2021/11/06 03:41:21;;;;;;;25.88;12.32;;;;;;;7.66;76.77;101483.38;5075067;28;20123;-83
2021/11/06 03:43:48;;;;;;;24.35;14.05;;;;;;;7.60;77.46;101490.03;5070543;28;20049;-82
2021/11/06 03:46:15;;;;;;;24.55;12.68;;;;;;;7.56;76.80;101494.44;5068654;28;20057;-82
2021/11/06 03:48:44;;;;;;;25.55;14.10;;;;;;;7.62;76.03;101493.38;5072914;28;20053;-82
2021/11/06 03:51:11;;;;;;;24.23;13.70;;;;;;;7.58;76.40;101491.38;5059868;28;20068;-82
2021/11/06 03:53:39;;;;;;;25.02;12.75;;;;;;;7.62;76.78;101498.06;5055396;28;20061;-82
2021/11/06 03:56:06;;;;;;;24.25;13.55;;;;;;;7.57;76.82;101504.41;5057547;28;20053;-82
2021/11/06 03:58:34;;;;;;;25.65;13.50;;;;;;;7.52;76.18;101496.91;5059750;28;20056;-82
2021/11/06 04:01:03;;;;;;;25.63;14.27;;;;;;;7.50;76.23;101503.84;5065920;28;20504;-82
2021/11/06 04:03:30;;;;;;;26.17;13.63;;;;;;;7.45;76.87;101499.06;5074003;28;20494;-82
2021/11/06 04:05:59;;;;;;;21.98;13.07;;;;;;;7.52;76.18;101498.84;5079993;28;20052;-82
2021/11/06 04:08:26;;;;;;;23.00;12.38;;;;;;;7.51;76.23;101502.72;5068630;28;20049;-82
2021/11/06 04:10:53;;;;;;;24.90;13.52;;;;;;;7.52;76.07;101508.00;5064679;28;20057;-82
2021/11/06 04:13:21;;;;;;;25.40;14.27;;;;;;;7.41;76.35;101513.75;5071354;28;20067;-82
2021/11/06 04:15:48;;;;;;;23.48;13.65;;;;;;;7.39;76.47;101500.16;5078066;28;20513;-81
2021/11/06 04:18:15;;;;;;;24.35;14.05;;;;;;;7.35;76.71;101514.81;5077746;28;20052;-82
2021/11/06 04:20:43;;;;;;;23.65;14.48;;;;;;;7.29;76.74;101511.19;5078558;28;20064;-82
2021/11/06 04:23:11;;;;;;;25.90;12.95;;;;;;;7.39;76.89;101504.84;5078849;28;20063;-82
2021/11/06 04:25:39;;;;;;;28.70;14.88;;;;;;;7.39;75.70;101508.47;5068862;28;20072;-82
2021/11/06 04:28:06;;;;;;;23.17;14.15;;;;;;;7.26;76.99;101512.53;5059488;28;20064;-83
2021/11/06 04:30:34;;;;;;;23.98;13.65;;;;;;;7.46;75.99;101514.63;5059041;28;20048;-83
2021/11/06 04:33:01;;;;;;;23.20;13.52;;;;;;;7.26;77.17;101511.69;5058874;28;20060;-83
2021/11/06 04:35:29;;;;;;;21.65;14.02;;;;;;;7.34;76.33;101507.59;5060458;28;20064;-83
2021/11/06 04:37:56;;;;;;;24.77;13.85;;;;;;;7.40;75.63;101504.59;5059244;28;20053;-83
2021/11/06 04:40:24;;;;;;;24.05;13.90;;;;;;;7.36;76.14;101500.69;5069449;28;20056;-83
2021/11/06 04:42:52;;;;;;;22.92;14.70;;;;;;;7.44;75.21;101496.59;5059292;28;20057;-83
2021/11/06 04:45:19;;;;;;;25.92;14.95;;;;;;;7.43;75.95;101508.75;5060088;28;20057;-83
2021/11/06 04:47:46;;;;;;;22.13;14.60;;;;;;;7.36;76.26;101508.19;5058081;28;20491;-83
2021/11/06 04:50:14;;;;;;;21.38;13.40;;;;;;;7.50;75.74;101503.84;5061643;28;20049;-83
2021/11/06 04:52:42;;;;;;;20.63;12.60;;;;;;;7.56;74.69;101499.13;5066648;28;20532;-83
2021/11/06 04:55:16;;;;;;;19.75;11.63;;;;;;;7.57;74.70;101507.19;5078230;28;20071;-83
2021/11/06 04:57:46;;;;;;;20.35;11.52;;;;;;;7.74;73.83;101507.00;5062103;28;20053;-83
2021/11/06 05:00:16;;;;;;;17.45;10.75;;;;;;;7.82;73.32;101502.88;5058430;28;20053;-83
2021/11/06 05:02:43;;;;;;;19.23;11.13;;;;;;;7.84;73.47;101498.72;5057974;28;20060;-83
2021/11/06 05:05:10;;;;;;;19.92;11.32;;;;;;;7.96;72.88;101514.28;5061700;28;20056;-83
2021/11/06 05:07:38;;;;;;;17.30;11.00;;;;;;;7.92;73.31;101505.69;5072793;28;20056;-83
2021/11/06 05:10:07;;;;;;;18.10;10.43;;;;;;;8.07;72.41;101497.41;5063075;28;20060;-83
2021/11/06 05:12:35;;;;;;;16.98;11.27;;;;;;;8.11;71.72;101500.50;5062746;28;20056;-83
2021/11/06 05:15:06;;;;;;;20.23;10.27;;;;;;;8.18;71.46;101492.72;5077180;28;20060;-83
2021/11/06 05:17:36;;;;;;;17.55;10.40;;;;;;;8.20;70.92;101492.47;5066482;28;20075;-83
2021/11/06 05:20:05;;;;;;;19.33;11.57;;;;;;;8.29;71.02;101494.44;5067318;28;20063;-83
2021/11/06 05:22:35;;;;;;;21.73;11.68;;;;;;;8.32;70.63;101493.06;5076837;28;20067;-83
2021/11/06 05:25:04;;;;;;;15.00;9.95;;;;;;;8.28;70.08;101492.75;5058584;28;20498;-83
2021/11/06 05:27:32;;;;;;;16.25;9.73;;;;;;;8.36;70.63;101491.41;5056697;28;20079;-83
2021/11/06 05:30:00;;;;;;;17.38;8.13;;;;;;;8.33;70.27;101486.38;5056890;28;20060;-83
2021/11/06 05:32:28;;;;;;;16.20;10.27;;;;;;;8.37;70.04;101484.72;5062984;28;20044;-83
2021/11/06 05:34:56;;;;;;;15.32;9.10;;;;;;;8.16;70.49;101481.06;5067642;28;20056;-83
2021/11/06 05:37:23;;;;;;;17.52;9.15;;;;;;;8.27;70.58;101487.47;5077073;28;20052;-83
2021/11/06 05:39:50;;;;;;;15.68;9.00;;;;;;;8.29;69.72;101480.56;5077077;28;20417;-83
2021/11/06 05:42:19;;;;;;;15.07;8.98;;;;;;;8.30;70.13;101484.16;5076816;28;20416;-83
2021/11/06 05:44:47;;;;;;;16.73;8.60;;;;;;;8.36;69.26;101487.78;5077909;28;20056;-83
2021/11/06 05:47:16;;;;;;;15.93;8.10;;;;;;;8.25;70.01;101487.78;5067441;28;20049;-83
2021/11/06 05:49:45;;;;;;;15.40;8.35;;;;;;;8.32;69.45;101499.44;5074799;28;20049;-83
2021/11/06 05:52:12;;;;;;;13.95;8.25;;;;;;;8.32;69.88;101490.28;5076648;28;20390;-83
2021/11/06 05:54:40;;;;;;;12.70;7.72;;;;;;;8.20;70.13;101495.25;5069354;28;20053;-83
2021/11/06 05:57:09;;;;;;;13.52;8.13;;;;;;;8.39;69.13;101493.63;5073406;28;20049;-83
2021/11/06 05:59:40;;;;;;;15.23;8.65;;;;;;;8.34;69.37;101493.63;5075904;28;20056;-83
2021/11/06 06:02:07;;;;;;;15.10;8.32;;;;;;;8.41;69.54;101491.44;5074633;28;20056;-83
2021/11/06 06:04:37;;;;;;;13.10;7.90;;;;;;;8.11;69.93;101490.22;5063277;28;20059;-83
2021/11/06 06:07:06;;;;;;;13.95;8.07;;;;;;;8.16;69.83;101483.03;5076723;28;20056;-83
2021/11/06 06:09:33;;;;;;;14.80;8.52;;;;;;;8.17;69.73;101485.53;5069067;28;20521;-83
2021/11/06 06:12:01;;;;;;;14.50;8.82;;;;;;;8.16;69.53;101485.78;5056580;28;20072;-83
2021/11/06 06:14:28;;;;;;;12.65;8.60;;;;;;;8.28;69.02;101494.72;5056467;28;20450;-83
2021/11/06 06:16:56;;;;;;;13.55;8.82;;;;;;;8.32;68.97;101502.22;5057638;28;20071;-83
2021/11/06 06:19:23;;;;;;;13.65;8.75;;;;;;;8.27;69.68;101498.59;5064417;28;20628;-83
2021/11/06 06:21:51;;;;;;;13.60;8.70;;;;;;;8.37;69.08;101500.56;5075374;28;20059;-83
2021/11/06 06:24:19;;;;;;;14.60;9.05;;;;;;;8.34;68.69;101504.72;5077422;28;20490;-83
2021/11/06 06:26:47;;;;;;;13.68;8.15;;;;;;;8.22;69.25;101491.09;5077294;28;20056;-82
2021/11/06 06:29:14;;;;;;;13.93;7.80;;;;;;;8.14;69.27;101498.00;5077208;28;20063;-83
2021/11/06 06:31:41;;;;;;;17.90;9.73;;;;;;;8.25;69.51;101504.44;5075548;28;20068;-82
2021/11/06 06:34:09;;;;;;;13.82;8.93;;;;;;;8.19;69.02;101502.75;5075691;28;20417;-82
2021/11/06 06:36:36;;;;;;;13.13;8.85;;;;;;;8.05;69.21;101507.97;5073924;28;20067;-82
2021/11/06 06:39:04;;;;;;;15.82;8.65;;;;;;;8.10;69.04;101510.75;5070139;28;20049;-82
2021/11/06 06:41:33;;;;;;;13.98;9.18;;;;;;;8.06;69.69;101520.75;5061737;28;20417;-82
2021/11/06 06:44:00;;;;;;;17.07;9.37;;;;;;;8.07;69.33;101525.16;5057270;28;20494;-83
2021/11/06 06:46:28;;;;;;;13.73;9.05;;;;;;;7.96;69.93;101523.47;5057025;28;20475;-83
2021/11/06 06:48:55;;;;;;;16.20;9.40;;;;;;;8.13;69.73;101515.75;5056760;28;20084;-83
2021/11/06 06:51:22;;;;;;;12.85;8.52;;;;;;;8.06;70.13;101520.75;5063683;28;20075;-83
2021/11/06 06:53:50;;;;;;;15.70;9.05;;;;;;;8.07;69.99;101521.56;5076199;28;20049;-82
2021/11/06 06:56:17;;;;;;;15.25;8.80;;;;;;;7.83;70.80;101522.03;5075465;28;20068;-83
2021/11/06 06:58:46;;;;;;;17.23;9.45;;;;;;;7.96;70.92;101525.38;5074075;28;20048;-83
2021/11/06 07:01:13;;;;;;;14.90;10.23;;;;;;;8.00;70.46;101534.84;5066256;28;20063;-83
2021/11/06 07:03:41;;;;;;;13.27;8.50;;;;;;;8.16;70.04;101530.19;5076029;28;20493;-83
2021/11/06 07:06:08;;;;;;;16.75;9.30;;;;;;;8.34;69.50;101529.72;5076829;28;20056;-83
2021/11/06 07:08:36;;;;;;;12.75;8.93;;;;;;;8.38;70.00;101539.16;5077308;28;20417;-83
2021/11/06 07:11:03;;;;;;;15.70;9.15;;;;;;;8.60;69.01;101532.56;5070785;28;20052;-83
2021/11/06 07:13:33;;;;;;;17.48;9.55;;;;;;;8.60;68.92;101533.41;5068088;28;20155;-83
2021/11/06 07:16:02;;;;;;;;;;;;;;;8.66;67.89;101528.69;5073761;28;20049;-83
2021/11/06 07:18:29;;;;;;;15.63;9.07;;;;;;;8.59;68.86;101534.53;5066221;28;19925;-83
2021/11/06 07:20:57;;;;;;;13.20;8.82;;;;;;;8.74;68.57;101520.66;5068294;28;20049;-83
2021/11/06 07:23:24;;;;;;;17.58;8.80;;;;;;;8.73;68.03;101537.56;5058273;28;20060;-83
2021/11/06 07:25:58;;;;;;;15.40;9.30;;;;;;;8.62;68.52;101533.94;5076270;28;20072;-83
2021/11/06 07:28:26;;;;;;;15.68;8.75;;;;;;;8.63;68.33;101540.34;5075410;28;20056;-83
2021/11/06 07:30:53;;;;;;;15.32;9.63;;;;;;;8.96;67.82;101538.16;5064377;28;20057;-83
2021/11/06 07:33:22;;;;;;;14.90;8.90;;;;;;;9.04;67.32;101540.38;5061413;28;20049;-83
2021/11/06 07:35:50;;;;;;;15.40;9.15;;;;;;;9.19;66.25;101534.81;5064356;28;20429;-83
2021/11/06 07:38:17;;;;;;;15.20;8.52;;;;;;;9.38;66.29;101539.81;5060639;28;20510;-83
2021/11/06 07:40:45;;;;;;;14.93;9.10;;;;;;;9.42;66.02;101538.13;5067418;28;20119;-83
2021/11/06 07:43:12;;;;;;;14.73;8.98;;;;;;;9.23;65.77;101533.13;5068901;28;20041;-83
2021/11/06 07:45:40;;;;;;;12.15;7.57;;;;;;;9.40;65.56;101537.56;5081103;28;20061;-83
2021/11/06 07:48:09;;;;;;;11.90;7.28;;;;;;;9.38;65.21;101529.50;5079327;28;20059;-83
2021/11/06 07:50:37;;;;;;;13.32;8.73;;;;;;;9.56;64.86;101530.88;5080162;28;20064;-83
2021/11/06 07:53:05;;;;;;;12.93;8.98;;;;;;;9.81;64.74;101529.16;5079900;28;20061;-83
2021/11/06 07:55:32;;;;;;;12.63;7.97;;;;;;;9.88;63.65;101526.88;5080361;28;20501;-84
2021/11/06 07:57:59;;;;;;;11.52;7.57;;;;;;;9.96;63.95;101523.53;5080204;28;20060;-84
2021/11/06 08:00:27;;;;;;;12.18;6.82;;;;;;;10.11;62.67;101530.97;5070798;28;21717;-83
2021/11/06 08:02:54;;;;;;;13.35;7.22;;;;;;;10.04;63.11;101531.28;5073209;28;20053;-83
2021/11/06 08:05:22;;;;;;;9.93;6.18;;;;;;;10.54;61.58;101521.03;5065038;28;20076;-83
2021/11/06 08:07:51;;;;;;;10.13;6.53;;;;;;;11.12;59.72;101534.22;5062703;28;20489;-83
2021/11/06 08:10:18;;;;;;;9.60;6.15;;;;;;;11.81;57.65;101533.28;5067631;28;20053;-83
2021/11/06 08:12:46;;;;;;;8.35;4.75;;;;;;;12.87;54.78;101533.00;5071778;28;20053;-83
2021/11/06 08:15:15;;;;;;;7.03;5.35;;;;;;;13.77;52.47;101528.06;5080884;28;20057;-83
2021/11/06 08:17:46;;;;;;;13.98;5.38;;;;;;;13.84;51.54;101522.03;5075421;28;20413;-83
2021/11/06 08:20:14;;;;;;;12.95;5.78;;;;;;;14.17;50.65;101522.75;5078980;28;20052;-83
2021/11/06 08:22:41;;;;;;;7.60;4.90;;;;;;;13.56;50.91;101527.59;5066802;28;20482;-84
2021/11/06 08:25:15;;;;;;;7.70;5.10;;;;;;;13.92;50.12;101520.47;5079927;28;20060;-84
2021/11/06 08:27:43;;;;;;;7.43;5.05;;;;;;;13.36;50.68;101512.03;5080254;28;20084;-84
2021/11/06 08:30:10;;;;;;;7.55;4.50;;;;;;;13.84;49.98;101516.44;5080337;28;20502;-84
2021/11/06 08:32:38;;;;;;;7.00;5.15;;;;;;;14.57;48.59;101516.56;5075879;28;20485;-83
2021/11/06 08:35:08;;;;;;;6.55;4.18;;;;;;;15.04;47.17;101513.50;5074693;28;20064;-83
2021/11/06 08:37:35;;;;;;;6.20;4.50;;;;;;;16.17;45.12;101512.06;5076367;28;20405;-83
2021/11/06 08:40:04;;;;;;;7.38;4.55;;;;;;;17.16;42.65;101514.28;5078353;28;20170;-83
2021/11/06 08:42:33;;;;;;;6.20;3.83;;;;;;;17.14;41.82;101510.97;5069841;28;20064;-80
2021/11/06 08:45:00;;;;;;;8.02;4.15;;;;;;;18.36;39.52;101499.22;5059187;28;20487;-83
2021/11/06 08:47:28;;;;;;;4.70;3.60;;;;;;;18.12;39.73;101499.03;5058215;28;20053;-83
2021/11/06 08:49:55;;;;;;;6.05;3.88;;;;;;;18.53;39.23;101505.91;5062984;28;20429;-83
2021/11/06 08:52:23;;;;;;;8.18;4.30;;;;;;;16.73;41.25;101508.66;5065129;28;20155;-83
2021/11/06 08:54:52;;;;;;;6.28;4.30;;;;;;;15.80;44.17;101507.81;5074841;28;20056;-83
2021/11/06 08:57:19;;;;;;;7.38;4.00;;;;;;;16.36;43.03;101505.34;5077525;28;20063;-83
2021/11/06 08:59:54;;;;;;;5.93;3.92;;;;;;;15.87;44.01;101502.53;5077899;28;20060;-83
2021/11/06 09:02:21;;;;;;;7.22;3.72;;;;;;;14.55;46.56;101511.28;5068434;28;20498;-83
2021/11/06 09:04:51;;;;;;;6.30;4.00;;;;;;;14.76;46.56;101507.97;5062809;28;20060;-83
2021/11/06 09:07:18;;;;;;;8.23;4.43;;;;;;;15.57;44.67;101521.06;5076016;28;20052;-85
2021/11/06 09:09:49;;;;;;;6.32;3.70;;;;;;;15.36;45.30;101495.53;5060256;28;20170;-85
2021/11/06 09:12:17;;;;;;;5.30;3.88;;;;;;;16.50;42.57;101502.34;5079142;28;20052;-85
2021/11/06 09:14:44;;;;;;;5.63;3.13;;;;;;;17.49;40.71;101490.34;5077988;28;20425;-85
2021/11/06 09:17:13;;;;;;;4.60;3.10;;;;;;;18.13;38.83;101484.59;5076334;28;20048;-85
2021/11/06 09:19:40;;;;;;;5.47;4.00;;;;;;;17.99;39.43;101484.84;5071079;28;20061;-85
2021/11/06 09:22:07;;;;;;;4.65;3.33;;;;;;;18.05;38.86;101491.13;5060079;28;20052;-85
2021/11/06 09:24:35;;;;;;;4.70;3.20;;;;;;;17.96;38.92;101490.34;5071484;28;20075;-85
2021/11/06 09:27:02;;;;;;;4.88;3.17;;;;;;;17.53;39.79;101494.13;5070931;28;20402;-82
2021/11/06 09:29:29;;;;;;;4.50;2.80;;;;;;;17.35;40.19;101501.84;5078207;28;20532;-84
2021/11/06 09:31:57;;;;;;;4.22;3.30;;;;;;;17.93;39.41;101493.84;5073396;28;20052;-83
2021/11/06 09:34:25;;;;;;;5.72;3.42;;;;;;;17.95;39.16;101497.13;5064428;28;20053;-85
2021/11/06 09:36:53;;;;;;;4.38;3.03;;;;;;;18.16;38.85;101497.19;5071901;28;20394;-84
2021/11/06 09:39:20;;;;;;;4.38;2.97;;;;;;;17.71;39.65;101500.53;5059612;28;20067;-84
2021/11/06 09:41:48;;;;;;;5.75;2.97;;;;;;;17.31;39.95;101510.13;5071955;28;20429;-84
2021/11/06 09:44:15;;;;;;;6.57;4.45;;;;;;;17.10;40.54;101512.00;5076394;28;20055;-84
2021/11/06 09:46:43;;;;;;;5.30;3.33;;;;;;;17.92;39.10;101512.75;5065082;28;20060;-85
2021/11/06 09:49:11;;;;;;;4.32;2.78;;;;;;;17.68;39.10;101501.22;5078518;28;20059;-85
2021/11/06 09:51:39;;;;;;;6.30;3.05;;;;;;;18.23;38.43;101503.94;5077530;28;20060;-84
2021/11/06 09:54:07;;;;;;;5.30;2.70;;;;;;;17.60;38.97;101494.47;5078512;28;20059;-86
2021/11/06 09:56:34;;;;;;;4.72;2.85;;;;;;;17.71;38.75;101497.72;5061899;28;20080;-87
2021/11/06 09:59:03;;;;;;;3.70;2.80;;;;;;;17.74;38.76;101489.41;5066208;28;20056;-85
2021/11/06 10:01:32;;;;;;;;;;;;;;;17.93;38.68;101502.28;5077775;28;20052;-85
2021/11/06 10:04:00;;;;;;;7.00;3.00;;;;;;;17.82;38.97;101493.34;5075925;28;20373;-83
2021/11/06 10:06:29;;;;;;;3.97;2.97;;;;;;;18.25;38.09;101484.69;5077347;28;20052;-83
2021/11/06 10:08:58;;;;;;;6.75;2.75;;;;;;;19.38;36.27;101491.34;5077092;28;20147;-83
2021/11/06 10:11:28;;;;;;;4.55;2.67;;;;;;;18.76;36.86;101497.91;5074833;28;20060;-88
2021/11/06 10:13:57;;;;;;;5.55;3.08;;;;;;;19.08;36.09;101489.84;5072506;28;20063;-87
2021/11/06 10:16:33;;;;;;;3.90;2.20;;;;;;;19.48;35.11;101498.53;5070110;28;20068;-86
2021/11/06 10:19:09;;;;;;;3.60;2.25;;;;;;;19.98;34.63;101488.94;5057014;28;20068;-86
2021/11/06 10:21:38;;;;;;;3.88;2.47;;;;;;;20.60;33.79;101486.91;5075277;28;20399;-87
2021/11/06 10:24:08;;;;;;;5.60;2.50;;;;;;;19.56;34.76;101488.31;5074705;28;20056;-88
2021/11/06 10:26:37;;;;;;;4.40;2.70;;;;;;;17.89;37.94;101496.53;5074510;28;20052;-89
2021/11/06 10:29:07;;;;;;;4.90;2.90;;;;;;;17.03;39.57;101490.78;5071361;28;20060;-89
2021/11/06 10:31:53;;;;;;;3.53;2.38;;;;;;;17.05;40.43;101484.84;5074276;28;20474;-89
2021/11/06 10:34:22;;;;;;;4.85;2.67;;;;;;;17.31;40.04;101487.59;5072697;28;20060;-89
2021/11/06 10:36:57;;;;;;;4.80;2.60;;;;;;;17.29;39.86;101487.09;5073980;28;20075;-88
2021/11/06 10:39:26;;;;;;;3.00;2.50;;;;;;;18.17;38.25;101485.56;5074876;28;20152;-88
2021/11/06 10:42:08;;;;;;;3.22;2.45;;;;;;;18.61;38.14;101483.25;5075073;28;20060;-88
2021/11/06 10:44:36;;;;;;;3.92;2.70;;;;;;;18.30;38.12;101475.19;5073871;28;20043;-87
2021/11/06 10:47:04;;;;;;;5.55;2.70;;;;;;;18.26;38.56;101488.31;5066610;28;20060;-85
2021/11/06 10:49:34;;;;;;;4.03;2.55;;;;;;;18.20;38.52;101467.94;5068411;28;20057;-84
2021/11/06 10:52:04;;;;;;;4.45;2.40;;;;;;;18.62;37.37;101464.31;5074207;28;20053;-85
2021/11/06 10:54:33;;;;;;;6.47;2.42;;;;;;;18.24;38.61;101459.66;5070055;28;20052;-84
2021/11/06 10:57:03;;;;;;;7.47;2.50;;;;;;;17.63;39.38;101454.31;5064431;28;20057;-83
2021/11/06 10:59:31;;;;;;;5.38;2.47;;;;;;;17.04;40.66;101471.91;5075898;28;20059;-83
2021/11/06 11:01:58;;;;;;;3.97;2.85;;;;;;;16.62;41.86;101460.34;5072706;28;20070;-83
2021/11/06 11:04:38;;;;;;;4.20;2.85;;;;;;;18.09;39.62;101443.34;5070441;28;20052;-83
2021/11/06 11:07:15;;;;;;;3.67;2.70;;;;;;;18.55;38.09;101439.50;5077299;28;20053;-83
2021/11/06 11:09:44;;;;;;;4.03;2.58;;;;;;;18.93;37.31;101444.13;5078540;28;20057;-83
2021/11/06 11:12:16;;;;;;;4.25;2.83;;;;;;;19.33;36.67;101432.22;5065079;28;20053;-84
2021/11/06 11:14:51;;;;;;;4.20;2.70;;;;;;;19.46;36.22;101439.56;5070522;28;20053;-83
2021/11/06 11:17:19;;;;;;;4.55;2.63;;;;;;;20.11;35.37;101430.38;5065713;28;20430;-83
2021/11/06 11:19:48;;;;;;;4.00;2.47;;;;;;;19.92;35.19;101428.16;5067178;28;20101;-83
2021/11/06 11:22:22;;;;;;;4.28;2.53;;;;;;;18.92;37.39;101419.91;5078293;28;20434;-83
2021/11/06 11:24:54;;;;;;;4.55;2.47;;;;;;;19.31;36.61;101414.00;5068095;28;20084;-81
2021/11/06 11:27:22;;;;;;;4.40;2.58;;;;;;;18.73;37.82;101411.94;5064541;28;20528;-81